• Join FlightAware (Why Join?)
  • Login
  • US Flag 
08:02PM EDT


 

Airport Tracker/Info


-or-


 

Live Flight TrackerFlight Track Log ✈ FDX1347 ✈ 04-Sep-2013 ✈ KALB - KMEM

Flight Track Log - Related Links

Times and Time Zones

All times are in EDT time to prevent confusion due to time zone crossing. See the FDX1347 flight status page for this flight to view local times or setup timezone preferences in your user account.

Time Position Orientation Groundspeed Altitude Reporting Facility
EDT Latitude Longitude Course Direction KTS MPH feet Rate Location/Type
10:01PM 42.8090 -73.8190 309° West 186 214 3,300  Level FlightAware
10:01PM 42.8130 -73.8350 289° West 199 229 3,700 2,160 Climbing FlightAware
10:01PM 42.8130 -73.8470 270° West 206 237 4,000 480 Climbing FlightAware
10:01PM 42.8140 -73.8750 273° West 206 237 4,000 2,100 Level FlightAware
10:02PM 42.8050 -73.8950 238° Southwest 240 276 5,400 2,640 Climbing FlightAware
10:02PM 42.7960 -73.9490 257° West 239 275 6,300 3,300 Climbing FlightAware
10:03PM 42.7910 -73.9900 261° West 256 295 8,600 3,000 Climbing FlightAware
10:03PM 42.7850 -74.0350 260° West 259 298 8,900 1,680 Climbing FlightAware
10:04PM 42.7850 -74.0360 270° West 265 305 10,600 1,860 Climbing FlightAware
10:05PM 42.7850 -74.0400 270° West 280 322 11,800 780 Climbing FlightAware
10:05PM 42.7780 -74.0930 260° West 280 322 11,800  Level FlightAware
10:06PM 42.7710 -74.1460 260° West 280 322 11,800 3,000 Level FlightAware
10:08PM 42.5700 -74.5610 237° Southwest 385 443 19,700 3,180 Climbing FlightAware
10:09PM 42.5410 -74.6240 238° Southwest 388 447 20,000 1,800 Climbing FlightAware
10:09PM 42.5100 -74.6940 239° Southwest 400 460 21,600 2,280 Climbing FlightAware
10:10PM 42.4690 -74.7830 238° Southwest 408 470 22,700 1,560 Climbing FlightAware
10:10PM 42.4330 -74.8650 239° Southwest 416 479 23,700 1,500 Climbing FlightAware
10:11PM 42.3990 -74.9380 238° Southwest 419 482 24,500 1,440 Climbing FlightAware
10:11PM 42.3610 -75.0220 239° Southwest 428 493 25,400 1,380 Climbing FlightAware
10:12PM 42.3130 -75.1260 238° Southwest 438 504 26,400 1,320 Climbing FlightAware
10:13PM 42.2760 -75.2070 238° Southwest 443 510 27,200 1,380 Climbing FlightAware
10:13PM 42.2340 -75.2960 238° Southwest 448 516 28,100 1,320 Climbing FlightAware
10:14PM 42.1980 -75.3750 238° Southwest 450 518 28,800 1,620 Climbing FlightAware
10:15PM 42.1620 -75.4570 239° Southwest 443 510 30,000 1,800 Climbing FlightAware
10:15PM 42.1220 -75.5500 240° Southwest 443 510 31,000 1,320 Climbing FlightAware
10:16PM 42.0860 -75.6340 240° Southwest 447 514 31,700 1,320 Climbing FlightAware
10:16PM 42.0520 -75.7110 239° Southwest 448 516 32,500 1,740 Climbing FlightAware
10:17PM 42.0080 -75.7940 235° Southwest 445 512 33,700 1,920 Climbing FlightAware
10:17PM 41.9820 -75.8220 219° Southwest 448 516 34,200 1,740 Climbing FlightAware
10:18PM 41.9250 -75.8650 209° Southwest 448 516 35,100 1,500 Climbing FlightAware
10:18PM 41.8650 -75.9090 209° Southwest 444 511 35,900 1,320 Climbing FlightAware
10:19PM 41.8030 -75.9610 212° Southwest 435 501 36,700 1,200 Climbing FlightAware
10:19PM 41.7580 -76.0220 225° Southwest 428 493 37,300 960 Climbing FlightAware
10:20PM 41.7180 -76.1040 237° Southwest 426 490 37,800 540 Climbing FlightAware
10:21PM 41.6850 -76.1820 240° Southwest 430 495 38,000 120 Climbing FlightAware
10:21PM 41.6470 -76.2690 240° Southwest 428 493 38,000  Level FlightAware
10:22PM 41.6030 -76.3700 240° Southwest 433 498 38,000  Level FlightAware
10:22PM 41.5720 -76.4420 240° Southwest 435 501 38,000  Level FlightAware
10:23PM 41.5390 -76.5250 242° Southwest 438 504 38,000  Level FlightAware
10:24PM 41.5030 -76.6130 241° Southwest 438 504 38,000  Level FlightAware
10:24PM 41.4700 -76.6940 241° Southwest 439 505 38,000  Level FlightAware
10:25PM 41.4310 -76.7860 241° Southwest 436 502 38,000  Level FlightAware
10:26PM 41.3970 -76.8680 241° Southwest 435 501 38,000  Level FlightAware
10:26PM 41.3650 -76.9420 240° Southwest 434 499 38,000  Level FlightAware
10:27PM 41.3280 -77.0310 241° Southwest 433 498 38,000  Level FlightAware
10:27PM 41.2970 -77.1080 242° Southwest 433 498 38,000  Level FlightAware
10:28PM 41.2600 -77.1930 240° Southwest 434 499 38,000  Level FlightAware
10:28PM 41.2260 -77.2730 241° Southwest 434 499 38,000  Level FlightAware
10:29PM 41.1910 -77.3560 241° Southwest 434 499 38,000 120 Level FlightAware
10:30PM 41.1570 -77.4380 241° Southwest 436 502 38,200 480 Climbing FlightAware
10:30PM 41.1220 -77.5170 240° Southwest 436 502 38,600 840 Climbing FlightAware
10:31PM 41.0870 -77.6000 241° Southwest 433 498 39,200 840 Climbing FlightAware
10:31PM 41.0540 -77.6760 240° Southwest 432 497 39,600 660 Climbing FlightAware
10:32PM 41.0190 -77.7560 240° Southwest 431 496 40,000 300 Climbing FlightAware
10:33PM 40.9830 -77.8410 241° Southwest 429 494 40,000  Level FlightAware
10:33PM 40.9490 -77.9210 241° Southwest 431 496 40,000  Level FlightAware
10:34PM 40.9180 -77.9920 240° Southwest 433 498 40,000  Level FlightAware
10:34PM 40.8790 -78.0820 240° Southwest 434 499 40,000  Level FlightAware
10:35PM 40.8440 -78.1620 240° Southwest 435 501 40,000  Level FlightAware
10:35PM 40.8090 -78.2430 240° Southwest 435 501 40,000  Level FlightAware
10:36PM 40.7600 -78.3550 240° Southwest 436 502 40,000  Level FlightAware
10:37PM 40.7230 -78.4380 240° Southwest 436 502 40,000  Level FlightAware
10:37PM 40.6880 -78.5190 240° Southwest 436 502 40,000  Level FlightAware
10:38PM 40.6520 -78.5990 239° Southwest 436 502 40,000  Level FlightAware
10:39PM 40.6170 -78.6770 239° Southwest 437 503 40,000  Level FlightAware
10:39PM 40.5820 -78.7570 240° Southwest 437 503 40,000  Level FlightAware
10:40PM 40.5460 -78.8380 240° Southwest 436 502 40,000  Level FlightAware
10:40PM 40.5170 -78.9040 240° Southwest 435 501 40,000  Level FlightAware
10:41PM 40.4730 -78.9990 239° Southwest 434 499 40,000  Level FlightAware
10:42PM 40.4380 -79.0790 240° Southwest 434 499 40,000  Level FlightAware
10:42PM 40.4020 -79.1580 239° Southwest 435 501 40,000  Level FlightAware
10:43PM 40.3680 -79.2330 239° Southwest 434 499 40,000  Level FlightAware
10:43PM 40.3280 -79.3230 240° Southwest 433 498 40,000  Level FlightAware
10:44PM 40.2920 -79.4020 239° Southwest 433 498 40,000  Level FlightAware
10:44PM 40.2540 -79.4860 239° Southwest 432 497 40,000  Level FlightAware
10:45PM 40.2210 -79.5580 239° Southwest 433 498 40,000  Level FlightAware
10:46PM 40.1830 -79.6410 239° Southwest 433 498 40,000  Level FlightAware
10:46PM 40.1500 -79.7130 239° Southwest 433 498 40,000  Level FlightAware
10:47PM 40.1130 -79.7940 239° Southwest 435 501 40,000  Level FlightAware
10:47PM 40.0750 -79.8750 239° Southwest 437 503 40,000  Level FlightAware
10:48PM 40.0370 -79.9560 239° Southwest 439 505 40,000  Level FlightAware
10:48PM 40.0050 -80.0270 240° Southwest 441 507 40,000  Level FlightAware
10:49PM 39.9630 -80.1160 238° Southwest 442 509 40,000  Level FlightAware
10:50PM 39.9290 -80.1910 239° Southwest 444 511 40,000  Level FlightAware
10:50PM 39.8890 -80.2780 239° Southwest 444 511 40,000  Level FlightAware
10:51PM 39.8590 -80.3390 237° Southwest 444 511 40,000  Level FlightAware
10:51PM 39.8230 -80.4170 239° Southwest 444 511 40,000  Level FlightAware
10:52PM 39.7590 -80.5520 238° Southwest 445 512 40,000  Level FlightAware
10:53PM 39.7190 -80.6380 239° Southwest 445 512 40,000  Level FlightAware
10:54PM 39.6850 -80.7110 239° Southwest 444 511 40,000  Level FlightAware
10:54PM 39.6430 -80.7970 238° Southwest 445 512 40,000  Level FlightAware
10:55PM 39.6050 -80.8790 239° Southwest 444 511 40,000  Level FlightAware
10:55PM 39.5650 -80.9600 237° Southwest 444 511 40,000  Level FlightAware
10:56PM 39.5270 -81.0420 239° Southwest 445 512 40,000  Level FlightAware
10:56PM 39.4910 -81.1170 238° Southwest 445 512 40,000  Level FlightAware
10:57PM 39.4510 -81.2000 238° Southwest 445 512 40,000  Level FlightAware
10:58PM 39.4120 -81.2790 237° Southwest 444 511 40,000  Level FlightAware
10:58PM 39.3890 -81.3260 238° Southwest 444 511 40,000  Level FlightAware
10:59PM 39.3460 -81.4160 238° Southwest 444 511 40,000  Level FlightAware
10:59PM 39.3080 -81.4950 238° Southwest 443 510 40,000  Level FlightAware
11:00PM 39.2660 -81.5800 237° Southwest 444 511 40,000  Level FlightAware
11:01PM 39.2200 -81.6770 239° Southwest 445 512 40,000  Level FlightAware
11:01PM 39.1660 -81.7840 237° Southwest 445 512 40,000  Level FlightAware
11:02PM 39.1310 -81.8560 238° Southwest 445 512 40,000  Level FlightAware
11:03PM 39.0910 -81.9390 238° Southwest 446 513 40,000  Level FlightAware
11:03PM 39.0510 -82.0200 238° Southwest 447 514 40,000  Level FlightAware
11:04PM 39.0110 -82.1010 238° Southwest 448 516 40,000  Level FlightAware
11:04PM 38.9770 -82.1680 237° Southwest 449 517 40,000  Level FlightAware
11:05PM 38.9380 -82.2470 238° Southwest 450 518 40,000  Level FlightAware
11:05PM 38.8970 -82.3300 238° Southwest 451 519 40,000  Level FlightAware
11:06PM 38.8590 -82.4050 237° Southwest 451 519 40,000  Level FlightAware
11:07PM 38.8150 -82.4950 238° Southwest 453 521 40,000  Level FlightAware
11:07PM 38.7780 -82.5680 237° Southwest 455 524 40,000  Level FlightAware
11:08PM 38.7390 -82.6450 237° Southwest 456 525 40,000  Level FlightAware
11:08PM 38.6990 -82.7240 237° Southwest 456 525 40,000  Level FlightAware
11:09PM 38.6550 -82.8100 237° Southwest 455 524 40,000  Level FlightAware
11:10PM 38.6190 -82.8830 238° Southwest 455 524 40,000  Level FlightAware
11:10PM 38.5780 -82.9620 236° Southwest 456 525 40,000  Level FlightAware
11:11PM 38.5480 -83.0230 238° Southwest 456 525 40,000  Level FlightAware
11:11PM 38.4970 -83.1200 236° Southwest 456 525 40,000  Level FlightAware
11:12PM 38.4570 -83.2010 238° Southwest 457 526 40,000  Level FlightAware
11:12PM 38.4130 -83.2850 236° Southwest 458 527 40,000  Level FlightAware
11:13PM 38.3824 -83.3457 237° Southwest 459 528 40,000  Level FlightAware ADS-B
11:14PM 38.3340 -83.4390 237° Southwest 460 529 40,000  Level FlightAware
11:14PM 38.2920 -83.5200 237° Southwest 460 529 40,000  Level FlightAware
11:15PM 38.2500 -83.6010 237° Southwest 460 529 40,000  Level FlightAware
11:15PM 38.2140 -83.6710 237° Southwest 462 532 40,000  Level FlightAware
11:16PM 38.1720 -83.7530 237° Southwest 462 532 40,000  Level FlightAware
11:17PM 38.1270 -83.8370 236° Southwest 462 532 40,000  Level FlightAware
11:17PM 38.0890 -83.9090 236° Southwest 463 533 40,000  Level FlightAware
11:18PM 38.0470 -83.9900 237° Southwest 463 533 40,000  Level FlightAware
11:18PM 38.0010 -84.0790 237° Southwest 463 533 40,000  Level FlightAware
11:18PM 37.9936 -84.0923 235° Southwest 464 534 40,000  Level FlightAware ADS-B
11:19PM 37.9580 -84.1598 236° Southwest 463 533 40,000  Level FlightAware ADS-B
11:20PM 37.9150 -84.2408 236° Southwest 463 533 40,000  Level FlightAware ADS-B
11:20PM 37.8794 -84.3082 236° Southwest 462 532 40,000  Level FlightAware ADS-B
11:21PM 37.8433 -84.3756 236° Southwest 462 532 40,000  Level FlightAware ADS-B
11:21PM 37.8073 -84.4430 236° Southwest 463 533 40,000  Level FlightAware ADS-B
11:22PM 37.7653 -84.5215 236° Southwest 464 534 40,000  Level FlightAware ADS-B
11:22PM 37.7294 -84.5888 236° Southwest 463 533 40,000  Level FlightAware ADS-B
11:23PM 37.6850 -84.6718 236° Southwest 464 534 40,000  Level FlightAware ADS-B
11:23PM 37.6485 -84.7390 236° Southwest 465 535 40,000  Level FlightAware ADS-B
11:24PM 37.6103 -84.8108 236° Southwest 465 535 40,000  Level FlightAware ADS-B
11:25PM 37.5510 -84.9205 236° Southwest 467 537 40,000  Level FlightAware ADS-B
11:25PM 37.5131 -84.9901 236° Southwest 468 539 40,000  Level FlightAware ADS-B
11:26PM 37.4732 -85.0646 236° Southwest 468 539 40,000  Level FlightAware ADS-B
11:26PM 37.4361 -85.1321 235° Southwest 469 540 40,000  Level FlightAware ADS-B
11:27PM 37.3986 -85.2018 236° Southwest 470 541 40,000  Level FlightAware ADS-B
11:27PM 37.3595 -85.2741 236° Southwest 471 542 40,000  Level FlightAware ADS-B
11:28PM 37.3104 -85.3645 236° Southwest 473 544 40,000  Level FlightAware ADS-B
11:29PM 37.2603 -85.4549 235° Southwest 473 544 40,000  Level FlightAware ADS-B
11:29PM 37.2107 -85.5454 235° Southwest 475 547 40,000  Level FlightAware ADS-B
11:30PM 37.1470 -85.6610 235° Southwest 476 548 40,000  Level FlightAware
11:31PM 37.1100 -85.7270 235° Southwest 477 549 40,000  Level FlightAware
11:31PM 37.0614 -85.8153 235° Southwest 477 549 40,000  Level FlightAware ADS-B
11:32PM 37.0208 -85.8877 235° Southwest 477 549 40,000  Level FlightAware ADS-B
11:32PM 36.9764 -85.9691 236° Southwest 477 549 40,000  Level FlightAware ADS-B
11:33PM 36.9381 -86.0370 235° Southwest 477 549 40,000  Level FlightAware ADS-B
11:33PM 36.8994 -86.1048 234° Southwest 478 550 40,000  Level FlightAware ADS-B
11:34PM 36.8607 -86.1748 235° Southwest 478 550 40,000  Level FlightAware ADS-B
11:34PM 36.8215 -86.2449 235° Southwest 478 550 40,000  Level FlightAware ADS-B
11:35PM 36.7829 -86.3124 234° Southwest 478 550 40,000  Level FlightAware ADS-B
11:35PM 36.7433 -86.3823 235° Southwest 479 551 40,000 -120 Level FlightAware ADS-B
11:36PM 36.6893 -86.4791 235° Southwest 478 550 39,900 -600 Descending FlightAware ADS-B
11:37PM 36.6510 -86.5460 235° Southwest 478 550 39,300 -1,080 Descending FlightAware
11:37PM 36.6050 -86.6280 235° Southwest 478 550 38,700 -1,140 Descending FlightAware
11:38PM 36.5580 -86.7110 235° Southwest 480 552 38,000 -1,140 Descending FlightAware
11:38PM 36.5160 -86.7830 234° Southwest 482 555 37,400 -1,080 Descending FlightAware
11:39PM 36.4690 -86.8670 235° Southwest 484 557 36,800 -960 Descending FlightAware
11:40PM 36.4240 -86.9460 235° Southwest 483 556 36,300 -960 Descending FlightAware
11:40PM 36.3770 -87.0250 234° Southwest 485 558 35,700 -1,020 Descending FlightAware
11:41PM 36.3350 -87.1000 235° Southwest 487 560 35,200 -660 Descending FlightAware
11:41PM 36.2890 -87.1800 235° Southwest 491 565 35,000 -180 Descending FlightAware
11:42PM 36.2400 -87.2620 233° Southwest 493 567 35,000  Level FlightAware
11:42PM 36.1980 -87.3360 235° Southwest 494 568 35,000  Level FlightAware
11:43PM 36.1490 -87.4210 234° Southwest 493 567 35,000  Level FlightAware
11:44PM 36.1090 -87.4900 234° Southwest 493 567 35,000  Level FlightAware
11:44PM 36.0590 -87.5740 234° Southwest 494 568 35,000 -660 Level FlightAware
11:45PM 36.0070 -87.6630 234° Southwest 497 572 34,200 -1,380 Descending FlightAware
11:45PM 35.9590 -87.7450 234° Southwest 503 579 33,300 -1,200 Descending FlightAware
11:46PM 35.9060 -87.8350 234° Southwest 498 573 32,700 -1,140 Descending FlightAware
11:47PM 35.8640 -87.9080 235° Southwest 497 572 32,000 -660 Descending FlightAware
11:47PM 35.8180 -87.9860 234° Southwest 497 572 32,000 -2,400 Level FlightAware
11:48PM 35.7600 -88.0820 233° Southwest 492 566 28,900 -2,460 Descending FlightAware
11:48PM 35.7160 -88.1540 233° Southwest 492 566 28,900  Level FlightAware
11:49PM 35.6740 -88.2220 233° Southwest 492 566 28,900  Level FlightAware
11:50PM 35.6320 -88.2910 233° Southwest 492 566 28,900  Level FlightAware
11:50PM 35.5900 -88.3590 233° Southwest 492 566 28,900  Level FlightAware
11:51PM 35.5480 -88.4280 233° Southwest 492 566 28,900  Level FlightAware
11:51PM 35.5060 -88.4960 233° Southwest 492 566 28,900 -3,540 Level FlightAware
11:56PM 35.1300 -88.9480 225° Southwest 357 411 10,500 -3,660 Descending FlightAware
11:57PM 35.0910 -88.9970 226° Southwest 329 379 10,100 -600 Descending FlightAware
11:57PM 35.0700 -89.0230 225° Southwest 313 360 10,000 -360 Descending FlightAware
11:57PM 35.0550 -89.0410 224° Southwest 301 346 9,900 -900 Descending FlightAware
11:58PM 35.0400 -89.0680 236° Southwest 288 331 9,500 -1,200 Descending FlightAware
11:58PM 35.0360 -89.0840 253° West 288 331 9,300 -1,380 Descending FlightAware
11:58PM 35.0350 -89.1320 269° West 283 326 8,600 -1,440 Descending FlightAware
11:59PM 35.0360 -89.1640 272° West 281 323 8,100 -1,380 Descending FlightAware
11:59PM 35.0370 -89.2030 272° West 279 321 7,600 -1,200 Descending FlightAware
11:59PM 35.0380 -89.2340 272° West 277 319 7,200 -1,200 Descending FlightAware
12:00AM 35.0390 -89.2660 272° West 276 318 6,800 -660 Descending FlightAware
12:00AM 35.0400 -89.3140 271° West 275 316 6,600 -900 Descending FlightAware
12:01AM 35.0410 -89.3480 272° West 257 296 6,000 -1,260 Descending FlightAware
12:01AM 35.0420 -89.3760 273° West 245 282 5,800 -300 Descending FlightAware
12:01AM 35.0430 -89.4030 273° West 237 273 5,800  Level FlightAware
12:02AM 35.0440 -89.4300 273° West 237 273 5,800  Level FlightAware
12:02AM 35.0440 -89.4430 270° West 237 273 5,800  Level FlightAware
12:02AM 35.0450 -89.4760 272° West 238 274 5,800  Level FlightAware
12:02AM 35.0460 -89.5030 273° West 238 274 5,800  Level FlightAware
12:03AM 35.0460 -89.5300 270° West 227 261 5,800  Level FlightAware
12:03AM 35.0470 -89.5540 273° West 214 246 5,800  Level FlightAware
12:04AM 35.0420 -89.5880 260° West 199 229 5,800  Level FlightAware
12:04AM 35.0300 -89.6050 229° Southwest 192 221 5,800  Level FlightAware
12:04AM 35.0220 -89.6180 233° Southwest 189 217 5,800  Level FlightAware
12:04AM 35.0200 -89.6230 244° Southwest 189 217 5,800  Level FlightAware
12:04AM 35.0200 -89.6280 270° West 187 215 5,800 -840 Level FlightAware
12:05AM 35.0290 -89.6570 291° West 184 212 5,300 -720 Descending FlightAware
12:06AM 35.0400 -89.6960 289° West 188 216 5,000 -1,080 Descending FlightAware
12:07AM 35.0558 -89.7583 289° West 181 208 3,500 -1,260 Descending Memphis Center
12:08AM 35.0564 -89.8244 271° West 181 208 2,500 -1,020 Descending Memphis Center
12:09AM 35.0500 -89.9000 264° West 192 221 1,400 -960 Descending KMEM
12:10AM 35.0500 -89.9500 270° West 136 157 500 -840 Descending KMEM
12:13AM 35.0333 -89.9667 270° West  Level FlightAware Approximate
12:20AM 35.0424 -89.9767 270° West  Level Estimated
12:21AM 35.0424 -89.9767 270° West  Level Estimated
12:22AM 35.0424 -89.9767 270° West  Level Estimated
12:23AM 35.0424 -89.9767 270° West  Level Estimated
12:24AM 35.0424 -89.9767 270° West  Level Estimated
12:25AM 35.0424 -89.9767 270° West  Level Estimated
12:26AM 35.0424 -89.9767 270° West  Level Estimated
12:27AM 35.0424 -89.9767 270° West  Level Estimated